createdAt,value
2023-01-21T00:01:09.310Z,34.50
2023-01-21T00:03:36.067Z,34.47
2023-01-21T00:06:03.121Z,34.42
2023-01-21T00:08:29.636Z,34.36
2023-01-21T00:10:56.246Z,34.42
2023-01-21T00:13:23.082Z,34.39
2023-01-21T00:15:49.762Z,34.33
2023-01-21T00:18:16.255Z,34.26
2023-01-21T00:20:42.811Z,34.20
2023-01-21T00:23:10.912Z,34.28
2023-01-21T00:25:37.476Z,34.28
2023-01-21T00:28:04.137Z,34.24
2023-01-21T00:30:30.746Z,34.10
2023-01-21T00:32:57.245Z,34.14
2023-01-21T00:35:23.814Z,34.39
2023-01-21T00:37:53.397Z,34.25
2023-01-21T00:40:20.301Z,34.25
2023-01-21T00:42:46.811Z,34.12
2023-01-21T00:45:13.353Z,33.97
2023-01-21T00:47:40.177Z,34.15
2023-01-21T00:50:07.400Z,34.25
2023-01-21T00:52:33.957Z,34.20
2023-01-21T00:55:00.456Z,34.20
2023-01-21T00:57:26.986Z,34.23
2023-01-21T00:59:53.781Z,34.19
2023-01-21T01:02:20.385Z,34.21
2023-01-21T01:04:47.038Z,34.16
2023-01-21T01:07:13.508Z,34.28
2023-01-21T01:09:40.211Z,34.17
2023-01-21T01:12:07.214Z,34.24
2023-01-21T01:14:33.679Z,34.21
2023-01-21T01:17:00.233Z,34.19
2023-01-21T01:19:26.861Z,34.15
2023-01-21T01:21:53.461Z,34.34
2023-01-21T01:24:20.092Z,34.20
2023-01-21T01:26:46.716Z,34.35
2023-01-21T01:29:13.646Z,34.19
2023-01-21T01:31:40.302Z,34.05
2023-01-21T01:34:06.884Z,34.05
2023-01-21T01:36:33.437Z,34.18
2023-01-21T01:38:59.977Z,34.12
2023-01-21T01:41:29.962Z,34.09
2023-01-21T01:43:58.771Z,34.05
2023-01-21T01:46:30.641Z,34.06
2023-01-21T01:49:26.394Z,33.90
2023-01-21T01:52:04.871Z,34.06
2023-01-21T01:54:53.546Z,34.08
2023-01-21T01:57:23.727Z,33.96
2023-01-21T01:59:51.081Z,34.25
2023-01-21T02:02:20.060Z,33.80
2023-01-21T02:04:58.231Z,33.93
2023-01-21T02:07:29.069Z,33.86
2023-01-21T02:09:55.728Z,33.83
2023-01-21T02:12:22.692Z,33.91
2023-01-21T02:14:49.933Z,33.94
2023-01-21T02:17:40.879Z,33.84
2023-01-21T02:20:13.413Z,33.91
2023-01-21T02:22:56.164Z,33.77
2023-01-21T02:25:48.093Z,33.90
2023-01-21T02:28:55.474Z,33.86
2023-01-21T02:31:50.129Z,33.55
2023-01-21T02:34:22.664Z,33.63
2023-01-21T02:37:12.315Z,33.63
2023-01-21T02:39:57.329Z,33.64
2023-01-21T02:42:49.082Z,33.83
2023-01-21T02:45:37.969Z,33.64
2023-01-21T02:48:29.656Z,33.68
2023-01-21T02:50:56.598Z,33.52
2023-01-21T02:53:29.983Z,33.59
2023-01-21T02:56:01.335Z,33.46
2023-01-21T02:58:32.044Z,33.66
2023-01-21T03:01:04.485Z,33.58
2023-01-21T03:03:56.116Z,33.54
2023-01-21T03:06:52.727Z,33.51
2023-01-21T03:09:28.995Z,33.51
2023-01-21T03:12:31.076Z,33.41
2023-01-21T03:15:39.361Z,33.44
2023-01-21T03:18:24.377Z,33.61
2023-01-21T03:20:56.007Z,33.34
2023-01-21T03:23:30.888Z,33.60
2023-01-21T03:25:59.064Z,33.54
2023-01-21T03:28:29.349Z,33.42
2023-01-21T03:31:05.485Z,33.47
2023-01-21T03:33:36.028Z,33.45
2023-01-21T03:36:14.973Z,33.62
2023-01-21T03:38:52.785Z,33.54
2023-01-21T03:41:34.073Z,33.47
2023-01-21T03:44:00.708Z,33.34
2023-01-21T03:46:37.302Z,33.36
2023-01-21T03:49:29.188Z,33.32
2023-01-21T03:51:59.047Z,33.39
2023-01-21T03:54:25.694Z,33.41
2023-01-21T03:56:52.289Z,33.67
2023-01-21T03:59:18.900Z,33.53
2023-01-21T04:01:45.565Z,33.32
2023-01-21T04:04:12.091Z,33.36
2023-01-21T04:06:38.556Z,33.29
2023-01-21T04:09:06.364Z,33.47
2023-01-21T04:11:33.467Z,33.16
2023-01-21T04:14:00.325Z,33.36
2023-01-21T04:16:26.873Z,33.27
2023-01-21T04:18:54.135Z,33.32
2023-01-21T04:21:20.634Z,33.24
2023-01-21T04:23:47.107Z,33.71
2023-01-21T04:26:13.689Z,33.55
2023-01-21T04:28:40.168Z,33.63
2023-01-21T04:31:06.872Z,33.51
2023-01-21T04:33:33.371Z,33.56
2023-01-21T04:36:00.933Z,33.83
2023-01-21T04:38:28.218Z,33.71
2023-01-21T04:40:54.804Z,33.53
2023-01-21T04:43:21.371Z,33.59
2023-01-21T04:45:47.967Z,33.62
2023-01-21T04:48:14.568Z,33.71
2023-01-21T04:50:41.049Z,33.58
2023-01-21T04:53:07.892Z,33.54
2023-01-21T04:55:34.616Z,33.56
2023-01-21T04:58:01.082Z,33.62
2023-01-21T05:00:27.731Z,33.50
2023-01-21T05:02:54.393Z,33.51
2023-01-21T05:05:21.048Z,33.47
2023-01-21T05:07:47.527Z,33.46
2023-01-21T05:10:18.117Z,33.28
2023-01-21T05:12:44.796Z,33.29
2023-01-21T05:15:12.013Z,32.96
2023-01-21T05:17:38.826Z,32.91
2023-01-21T05:20:06.080Z,32.83
2023-01-21T05:22:32.621Z,32.83
2023-01-21T05:25:00.527Z,32.82
2023-01-21T05:27:27.762Z,32.70
2023-01-21T05:29:54.280Z,32.75
2023-01-21T05:32:20.756Z,32.92
2023-01-21T05:34:47.342Z,33.00
2023-01-21T05:37:13.884Z,32.88
2023-01-21T05:39:40.484Z,33.14
2023-01-21T05:42:07.182Z,33.11
2023-01-21T05:44:33.794Z,33.13
2023-01-21T05:47:00.279Z,33.24
2023-01-21T05:49:26.835Z,33.35
2023-01-21T05:51:53.296Z,33.22
2023-01-21T05:54:19.950Z,33.13
2023-01-21T05:56:46.409Z,33.34
2023-01-21T05:59:12.922Z,33.06
2023-01-21T06:01:39.416Z,33.00
2023-01-21T06:04:05.948Z,33.09
2023-01-21T06:06:32.470Z,32.97
2023-01-21T06:08:58.999Z,32.91
2023-01-21T06:11:25.512Z,33.07
2023-01-21T06:13:52.011Z,33.15
2023-01-21T06:16:18.601Z,32.91
2023-01-21T06:18:45.258Z,33.01
2023-01-21T06:21:11.901Z,32.89
2023-01-21T06:23:38.519Z,33.01
2023-01-21T06:26:05.223Z,32.97
2023-01-21T06:28:31.773Z,33.17
2023-01-21T06:30:58.673Z,33.08
2023-01-21T06:33:25.435Z,32.95
2023-01-21T06:35:51.956Z,33.13
2023-01-21T06:38:18.539Z,33.02
2023-01-21T06:40:45.056Z,32.98
2023-01-21T06:43:11.615Z,32.88
2023-01-21T06:45:38.149Z,32.78
2023-01-21T06:48:04.937Z,32.72
2023-01-21T06:50:31.426Z,32.86
2023-01-21T06:52:58.043Z,32.95
2023-01-21T06:55:24.542Z,32.92
2023-01-21T06:57:51.055Z,33.08
2023-01-21T07:00:19.218Z,33.81
2023-01-21T07:02:45.893Z,33.41
2023-01-21T07:05:15.487Z,33.20
2023-01-21T07:07:42.421Z,33.31
2023-01-21T07:10:09.799Z,33.13
2023-01-21T07:12:36.324Z,33.08
2023-01-21T07:15:02.829Z,33.11
2023-01-21T07:17:29.721Z,33.16
2023-01-21T07:19:56.207Z,33.21
2023-01-21T07:22:22.687Z,33.06
2023-01-21T07:24:49.166Z,32.85
2023-01-21T07:27:16.185Z,32.86
2023-01-21T07:29:42.897Z,32.93
2023-01-21T07:32:09.446Z,32.88
2023-01-21T07:34:36.037Z,32.80
2023-01-21T07:37:02.486Z,33.03
2023-01-21T07:39:29.020Z,32.78
2023-01-21T07:41:55.538Z,32.95
2023-01-21T07:44:22.069Z,32.65
2023-01-21T07:46:48.746Z,32.68
2023-01-21T07:49:17.394Z,32.72
2023-01-21T07:51:45.355Z,32.71
2023-01-21T07:54:12.610Z,32.83
2023-01-21T07:56:39.292Z,32.91
2023-01-21T07:59:06.405Z,33.08
2023-01-21T08:01:33.093Z,33.04
2023-01-21T08:04:00.058Z,33.15
2023-01-21T08:06:26.839Z,33.13
2023-01-21T08:08:53.312Z,33.27
2023-01-21T08:11:19.872Z,33.17
2023-01-21T08:13:46.419Z,33.19
2023-01-21T08:16:13.693Z,33.23
2023-01-21T08:18:40.481Z,33.39
2023-01-21T08:21:07.006Z,33.28
2023-01-21T08:23:33.501Z,33.38
2023-01-21T08:26:02.736Z,33.45
2023-01-21T08:28:29.227Z,33.78
2023-01-21T08:31:03.209Z,33.57
2023-01-21T08:33:30.222Z,33.56
2023-01-21T08:36:01.229Z,33.48
2023-01-21T08:38:27.794Z,33.49
2023-01-21T08:40:55.791Z,33.78
2023-01-21T08:43:22.243Z,33.86
2023-01-21T08:45:49.189Z,33.86
2023-01-21T08:48:15.693Z,34.07
2023-01-21T08:50:42.614Z,34.08
2023-01-21T08:53:10.983Z,34.24
2023-01-21T08:55:37.591Z,34.31
2023-01-21T08:58:04.325Z,34.65
2023-01-21T09:00:31.032Z,35.18
2023-01-21T09:02:59.372Z,35.12
2023-01-21T09:05:26.019Z,35.04
2023-01-21T09:07:52.495Z,34.93
2023-01-21T09:10:38.111Z,35.11
2023-01-21T09:13:06.364Z,35.00
2023-01-21T09:15:44.429Z,34.99
2023-01-21T09:18:11.100Z,35.02
2023-01-21T09:20:37.877Z,34.74
2023-01-21T09:23:24.358Z,34.75
2023-01-21T09:26:00.601Z,34.70
2023-01-21T09:28:27.693Z,34.78
2023-01-21T09:30:59.011Z,34.82
2023-01-21T09:33:27.074Z,34.80
2023-01-21T09:35:59.050Z,34.80
2023-01-21T09:38:26.654Z,34.94
2023-01-21T09:40:53.730Z,34.60
2023-01-21T09:43:28.762Z,34.64
2023-01-21T09:46:00.391Z,34.65
2023-01-21T09:48:41.945Z,34.66
2023-01-21T09:51:26.133Z,34.58
2023-01-21T09:53:56.048Z,34.54
2023-01-21T09:56:35.665Z,34.68
2023-01-21T09:59:15.048Z,34.54
2023-01-21T10:01:43.075Z,34.63
2023-01-21T10:04:41.813Z,34.67
2023-01-21T10:07:34.197Z,34.97
2023-01-21T10:10:16.137Z,35.51
2023-01-21T10:13:03.927Z,36.16
2023-01-21T10:15:42.371Z,37.34
2023-01-21T10:18:40.180Z,38.52
2023-01-21T10:21:32.168Z,38.89
2023-01-21T10:24:04.627Z,41.20
2023-01-21T10:26:34.657Z,39.95
2023-01-21T10:29:01.696Z,40.53
2023-01-21T10:31:32.764Z,41.56
2023-01-21T10:33:59.559Z,42.05
2023-01-21T10:37:13.035Z,42.87
2023-01-21T10:40:12.122Z,42.60
2023-01-21T10:42:56.940Z,41.72
2023-01-21T10:45:40.883Z,40.99
2023-01-21T10:48:13.739Z,40.59
2023-01-21T10:51:00.926Z,39.28
2023-01-21T10:53:42.173Z,38.71
2023-01-21T10:56:42.831Z,38.40
2023-01-21T10:59:12.066Z,38.51
2023-01-21T11:02:15.067Z,38.53
2023-01-21T11:04:41.971Z,38.46
2023-01-21T11:07:14.376Z,38.64
2023-01-21T11:09:46.795Z,38.50
2023-01-21T11:12:17.550Z,38.74
2023-01-21T11:14:49.162Z,38.77
2023-01-21T11:17:30.944Z,38.54
2023-01-21T11:20:04.938Z,38.45
2023-01-21T11:22:32.596Z,38.32
2023-01-21T11:25:00.458Z,37.83
2023-01-21T11:27:36.934Z,37.56
2023-01-21T11:30:20.897Z,37.63
2023-01-21T11:32:52.015Z,37.83
2023-01-21T11:35:23.140Z,37.78
2023-01-21T11:37:49.731Z,38.02
2023-01-21T11:40:24.039Z,37.92
2023-01-21T11:42:53.383Z,37.91
2023-01-21T11:45:26.623Z,38.00
2023-01-21T11:47:54.057Z,38.24
2023-01-21T11:50:40.127Z,38.11
2023-01-21T11:53:06.705Z,38.05
2023-01-21T11:55:59.748Z,37.97
2023-01-21T11:58:31.024Z,37.89
2023-01-21T12:01:04.222Z,37.87
2023-01-21T12:03:48.688Z,37.70
2023-01-21T12:06:26.504Z,37.42
2023-01-21T12:08:56.547Z,37.54
2023-01-21T12:11:26.931Z,37.47
2023-01-21T12:14:36.135Z,37.42
2023-01-21T12:17:19.815Z,37.36
2023-01-21T12:19:52.540Z,37.45
2023-01-21T12:22:40.492Z,37.44
2023-01-21T12:25:17.591Z,37.38
2023-01-21T12:27:49.265Z,37.40
2023-01-21T12:30:39.088Z,37.36
2023-01-21T12:33:21.991Z,37.46
2023-01-21T12:35:58.933Z,37.42
2023-01-21T12:38:32.336Z,37.53
2023-01-21T12:41:08.435Z,37.60
2023-01-21T12:43:38.334Z,37.53
2023-01-21T12:46:20.853Z,37.49
2023-01-21T12:49:12.662Z,37.57
2023-01-21T12:51:49.829Z,37.38
2023-01-21T12:54:36.233Z,37.38
2023-01-21T12:57:44.503Z,37.41
2023-01-21T13:00:39.153Z,37.57
2023-01-21T13:03:08.718Z,37.70
2023-01-21T13:05:43.542Z,37.82
2023-01-21T13:08:31.631Z,37.65
2023-01-21T13:11:06.067Z,37.76
2023-01-21T13:13:38.322Z,37.70
2023-01-21T13:16:10.248Z,37.57
2023-01-21T13:18:42.808Z,37.70
2023-01-21T13:21:18.957Z,37.91
2023-01-21T13:24:04.053Z,38.06
2023-01-21T13:26:43.719Z,38.25
2023-01-21T13:29:14.769Z,38.33
2023-01-21T13:31:53.106Z,38.33
2023-01-21T13:34:50.788Z,38.15
2023-01-21T13:37:17.230Z,38.24
2023-01-21T13:39:53.624Z,38.10
2023-01-21T13:42:53.626Z,37.93
2023-01-21T13:46:11.438Z,37.91
2023-01-21T13:48:59.550Z,37.95
2023-01-21T13:51:35.264Z,38.02
2023-01-21T13:54:23.205Z,37.91
2023-01-21T13:57:06.880Z,38.17
2023-01-21T13:59:51.284Z,38.23
2023-01-21T14:02:30.423Z,38.58
2023-01-21T14:05:20.476Z,38.43
2023-01-21T14:08:12.099Z,38.24
2023-01-21T14:10:41.670Z,38.49
2023-01-21T14:13:35.988Z,38.61
2023-01-21T14:16:22.698Z,38.92
2023-01-21T14:19:07.236Z,38.96
2023-01-21T14:21:46.027Z,38.94
2023-01-21T14:24:15.350Z,38.82
2023-01-21T14:27:03.283Z,38.66
2023-01-21T14:29:46.843Z,38.71
2023-01-21T14:32:20.519Z,38.82
2023-01-21T14:35:08.163Z,39.00
2023-01-21T14:37:44.170Z,40.18
2023-01-21T14:40:20.152Z,40.74
2023-01-21T14:42:49.270Z,39.89
2023-01-21T14:45:35.955Z,39.99
2023-01-21T14:48:28.216Z,39.52
2023-01-21T14:51:08.903Z,39.34
2023-01-21T14:54:03.964Z,39.08
2023-01-21T14:56:34.900Z,38.95
2023-01-21T14:59:04.977Z,38.60
2023-01-21T15:01:44.870Z,38.56
2023-01-21T15:04:24.926Z,38.32
2023-01-21T15:07:01.298Z,38.22
2023-01-21T15:09:37.871Z,38.13
2023-01-21T15:12:18.043Z,38.03
2023-01-21T15:14:45.981Z,37.90
2023-01-21T15:17:50.160Z,37.78
2023-01-21T15:20:52.433Z,37.73
2023-01-21T15:23:30.324Z,37.51
2023-01-21T15:26:09.312Z,37.46
2023-01-21T15:28:40.731Z,37.50
2023-01-21T15:31:10.373Z,37.56
2023-01-21T15:33:42.684Z,37.55
2023-01-21T15:36:20.401Z,37.58
2023-01-21T15:38:48.649Z,37.46
2023-01-21T15:41:28.344Z,37.34
2023-01-21T15:44:12.374Z,37.17
2023-01-21T15:46:50.311Z,37.11
2023-01-21T15:49:54.393Z,37.05
2023-01-21T15:52:44.023Z,37.07
2023-01-21T15:55:41.267Z,37.15
2023-01-21T15:58:16.785Z,37.12
2023-01-21T16:00:49.492Z,37.71
2023-01-21T16:03:25.096Z,37.35
2023-01-21T16:06:24.980Z,37.42
2023-01-21T16:09:05.676Z,37.62
2023-01-21T16:11:40.425Z,37.65
2023-01-21T16:14:35.459Z,37.73
2023-01-21T16:17:42.467Z,37.76
2023-01-21T16:20:11.871Z,37.80
2023-01-21T16:22:42.298Z,37.73
2023-01-21T16:25:13.501Z,37.79
2023-01-21T16:27:46.134Z,37.80
2023-01-21T16:30:19.904Z,37.71
2023-01-21T16:32:47.111Z,37.50
2023-01-21T16:35:13.979Z,37.66
2023-01-21T16:37:43.664Z,37.69
2023-01-21T16:40:25.645Z,37.62
2023-01-21T16:43:26.031Z,37.64
2023-01-21T16:46:01.039Z,37.49
2023-01-21T16:48:31.213Z,37.53
2023-01-21T16:50:58.964Z,37.25
2023-01-21T16:53:25.648Z,37.18
2023-01-21T16:55:59.686Z,37.06
2023-01-21T16:58:31.712Z,37.12
2023-01-21T17:01:00.322Z,37.08
2023-01-21T17:03:28.044Z,37.07
2023-01-21T17:05:59.133Z,36.90
2023-01-21T17:08:26.463Z,36.99
2023-01-21T17:11:10.893Z,36.92
2023-01-21T17:13:41.017Z,37.04
2023-01-21T17:16:25.050Z,36.89
2023-01-21T17:19:33.799Z,36.76
2023-01-21T17:22:03.975Z,36.66
2023-01-21T17:24:43.851Z,36.66
2023-01-21T17:27:15.929Z,36.73
2023-01-21T17:29:44.564Z,36.61
2023-01-21T17:32:32.340Z,36.69
2023-01-21T17:35:10.931Z,36.70
2023-01-21T17:37:51.028Z,36.58
2023-01-21T17:40:28.831Z,36.48
2023-01-21T17:42:56.593Z,36.44
2023-01-21T17:45:37.485Z,36.78
2023-01-21T17:48:10.188Z,36.60
2023-01-21T17:50:46.344Z,36.79
2023-01-21T17:53:26.882Z,36.83
2023-01-21T17:55:58.356Z,36.75
2023-01-21T17:58:57.504Z,36.67
2023-01-21T18:01:24.087Z,36.65
2023-01-21T18:03:50.733Z,36.66
2023-01-21T18:06:20.752Z,36.68
2023-01-21T18:08:47.263Z,36.65
2023-01-21T18:11:16.115Z,36.63
2023-01-21T18:13:42.668Z,36.62
2023-01-21T18:16:09.384Z,36.61
2023-01-21T18:18:38.114Z,36.59
2023-01-21T18:21:05.252Z,36.43
2023-01-21T18:23:32.396Z,36.42
2023-01-21T18:25:59.067Z,36.43
2023-01-21T18:28:28.397Z,36.42
2023-01-21T18:30:57.313Z,36.31
2023-01-21T18:33:24.586Z,36.26
2023-01-21T18:35:52.479Z,36.32
2023-01-21T18:38:27.415Z,36.15
2023-01-21T18:40:55.768Z,36.06
2023-01-21T18:43:23.242Z,35.92
2023-01-21T18:45:49.753Z,36.06
2023-01-21T18:48:17.392Z,36.21
2023-01-21T18:50:44.086Z,36.10
2023-01-21T18:53:12.903Z,36.05
2023-01-21T18:55:43.891Z,35.99
2023-01-21T18:58:14.153Z,36.02
2023-01-21T19:00:41.559Z,35.97
2023-01-21T19:03:14.042Z,35.88
2023-01-21T19:05:43.499Z,35.86
2023-01-21T19:08:24.489Z,35.96
2023-01-21T19:10:51.830Z,35.78
2023-01-21T19:13:18.758Z,35.74
2023-01-21T19:15:47.043Z,35.77
2023-01-21T19:18:15.444Z,35.62
2023-01-21T19:20:43.047Z,35.54
2023-01-21T19:23:17.956Z,35.48
2023-01-21T19:25:52.608Z,35.49
2023-01-21T19:28:19.715Z,35.54
2023-01-21T19:30:46.488Z,35.51
2023-01-21T19:33:13.115Z,35.44
2023-01-21T19:35:43.953Z,35.40
2023-01-21T19:38:21.817Z,35.41
2023-01-21T19:40:48.367Z,35.38
2023-01-21T19:43:17.848Z,35.42
2023-01-21T19:45:44.504Z,35.35
2023-01-21T19:48:19.824Z,35.36
2023-01-21T19:50:46.459Z,35.33
2023-01-21T19:53:15.610Z,35.22
2023-01-21T19:55:43.422Z,35.25
2023-01-21T19:58:22.293Z,35.11
2023-01-21T20:00:51.142Z,35.11
2023-01-21T20:03:19.462Z,35.12
2023-01-21T20:05:48.679Z,35.09
2023-01-21T20:08:24.728Z,35.18
2023-01-21T20:10:51.243Z,35.12
2023-01-21T20:13:18.094Z,35.05
2023-01-21T20:15:46.298Z,34.99
2023-01-21T20:18:22.300Z,35.00
2023-01-21T20:20:49.677Z,34.96
2023-01-21T20:23:17.274Z,34.88
2023-01-21T20:25:45.506Z,34.93
2023-01-21T20:28:27.484Z,34.86
2023-01-21T20:30:54.819Z,34.91
2023-01-21T20:33:23.884Z,34.75
2023-01-21T20:35:55.444Z,34.79
2023-01-21T20:38:30.139Z,34.73
2023-01-21T20:40:57.820Z,34.64
2023-01-21T20:43:24.811Z,34.71
2023-01-21T20:45:52.480Z,34.63
2023-01-21T20:48:41.302Z,34.73
2023-01-21T20:51:08.195Z,34.75
2023-01-21T20:53:34.983Z,34.74
2023-01-21T20:56:24.691Z,34.71
2023-01-21T20:58:51.273Z,34.73
2023-01-21T21:01:20.215Z,34.77
2023-01-21T21:03:47.155Z,34.93
2023-01-21T21:06:16.056Z,34.78
2023-01-21T21:08:42.857Z,34.69
2023-01-21T21:11:10.376Z,34.65
2023-01-21T21:13:37.451Z,34.77
2023-01-21T21:16:16.999Z,34.97
2023-01-21T21:18:43.528Z,35.04
2023-01-21T21:21:12.455Z,35.13
2023-01-21T21:23:39.006Z,35.15
2023-01-21T21:26:15.203Z,35.19
2023-01-21T21:28:41.691Z,35.16
2023-01-21T21:31:14.895Z,35.26
2023-01-21T21:33:42.289Z,35.05
2023-01-21T21:36:20.679Z,35.10
2023-01-21T21:38:48.993Z,35.14
2023-01-21T21:41:36.477Z,34.91
2023-01-21T21:44:04.858Z,34.95
2023-01-21T21:46:50.483Z,34.96
2023-01-21T21:49:16.985Z,34.87
2023-01-21T21:51:45.599Z,34.88
2023-01-21T21:54:14.033Z,34.76
2023-01-21T21:56:40.643Z,34.71
2023-01-21T21:59:07.452Z,34.62
2023-01-21T22:01:36.033Z,34.63
2023-01-21T22:04:03.863Z,34.55
2023-01-21T22:06:31.225Z,34.37
2023-01-21T22:09:00.880Z,34.44
2023-01-21T22:11:28.569Z,34.29
2023-01-21T22:13:57.520Z,34.14
2023-01-21T22:16:26.948Z,34.12
2023-01-21T22:18:54.676Z,34.22
2023-01-21T22:21:27.243Z,34.13
2023-01-21T22:23:54.820Z,34.21
2023-01-21T22:26:23.736Z,34.11
2023-01-21T22:28:53.913Z,34.09
2023-01-21T22:31:28.939Z,33.88
2023-01-21T22:33:57.072Z,33.85
2023-01-21T22:36:26.545Z,33.98
2023-01-21T22:38:53.248Z,33.86
2023-01-21T22:41:22.655Z,33.67
2023-01-21T22:43:50.485Z,33.77
2023-01-21T22:46:31.644Z,33.64
2023-01-21T22:48:58.665Z,33.47
2023-01-21T22:51:25.501Z,33.51
2023-01-21T22:53:52.892Z,33.36
2023-01-21T22:56:25.345Z,33.47
2023-01-21T22:58:58.687Z,33.38
2023-01-21T23:01:27.910Z,33.29
2023-01-21T23:03:54.896Z,33.27
2023-01-21T23:06:21.631Z,33.00
2023-01-21T23:08:48.528Z,33.19
2023-01-21T23:11:16.310Z,33.28
2023-01-21T23:13:43.333Z,33.08
2023-01-21T23:16:13.529Z,33.07
2023-01-21T23:18:41.968Z,33.26
2023-01-21T23:21:17.741Z,33.01
2023-01-21T23:23:44.310Z,33.00
2023-01-21T23:26:11.639Z,33.00
2023-01-21T23:28:38.372Z,32.80
2023-01-21T23:31:07.599Z,32.79
2023-01-21T23:33:36.413Z,32.92
2023-01-21T23:36:03.388Z,32.89
2023-01-21T23:38:30.368Z,32.86
2023-01-21T23:40:57.381Z,32.78
2023-01-21T23:43:27.872Z,32.61
2023-01-21T23:45:54.324Z,32.59
2023-01-21T23:48:21.754Z,32.60
2023-01-21T23:50:48.591Z,32.72
2023-01-21T23:53:15.575Z,32.67
2023-01-21T23:55:42.224Z,32.45
2023-01-21T23:58:08.805Z,32.44
